Time;durP1;ratioP1;P1;durP2;ratioP2;P2;SDS_P1;SDS_P2;PMS_P1;PMS_P2;Temp;Humidity;BMP_temperature;BMP_pressure;BME280_temperature;BME280_humidity;BME280_pressure;Samples;Min_cycle;Max_cycle;Signal;HPM_P1;HPM_P2
2022/07/11 00:01:33;;;;;;;2.62;2.40;;;;;;;18.79;74.46;98969.35;1778573;78;20984;-75
2022/07/11 00:04:00;;;;;;;2.77;2.50;;;;;;;18.73;74.54;98967.63;1763985;78;21533;-75
2022/07/11 00:06:26;;;;;;;3.52;2.87;;;;;;;18.66;74.79;98966.98;1801740;78;21093;-74
2022/07/11 00:08:53;;;;;;;3.35;2.30;;;;;;;18.58;74.75;98969.52;1803384;79;21069;-74
2022/07/11 00:11:21;;;;;;;4.35;2.40;;;;;;;18.59;74.82;98970.33;1792406;78;21481;-74
2022/07/11 00:13:47;;;;;;;2.60;2.40;;;;;;;18.66;74.78;98971.02;1790651;78;21508;-74
2022/07/11 00:16:15;;;;;;;3.83;2.47;;;;;;;18.62;74.78;98964.45;1789623;78;21021;-75
2022/07/11 00:18:43;;;;;;;2.52;2.25;;;;;;;18.57;75.07;98970.56;1803263;78;21081;-73
2022/07/11 00:21:11;;;;;;;2.90;2.30;;;;;;;18.50;75.09;98971.22;1802185;78;20990;-74
2022/07/11 00:23:39;;;;;;;2.47;2.30;;;;;;;18.46;75.25;98974.91;1801468;78;21006;-72
2022/07/11 00:26:06;;;;;;;2.50;2.30;;;;;;;18.44;75.17;98970.83;1783265;78;21032;-73
2022/07/11 00:28:33;;;;;;;4.30;2.65;;;;;;;18.47;75.13;98971.18;1801737;78;21104;-73
2022/07/11 00:30:59;;;;;;;2.90;2.20;;;;;;;18.55;74.89;98967.83;1801567;78;21142;-75
2022/07/11 00:33:26;;;;;;;4.20;2.42;;;;;;;18.52;74.81;98968.30;1797465;78;21287;-73
2022/07/11 00:35:52;;;;;;;2.95;2.40;;;;;;;18.51;74.79;98963.99;1802429;78;21022;-76
2022/07/11 00:38:21;;;;;;;3.20;2.33;;;;;;;18.48;74.73;98957.20;1805115;79;21080;-74
2022/07/11 00:40:47;;;;;;;3.52;2.22;;;;;;;18.41;74.70;98956.00;1803180;78;21474;-74
2022/07/11 00:43:14;;;;;;;2.75;2.45;;;;;;;18.34;74.82;98953.97;1803633;78;21553;-75
2022/07/11 00:45:41;;;;;;;2.60;2.30;;;;;;;18.33;74.83;98960.92;1720505;81;21048;-76
2022/07/11 00:48:07;;;;;;;3.25;2.50;;;;;;;18.36;74.62;98953.20;1798967;78;21046;-74
2022/07/11 00:50:35;;;;;;;2.83;2.35;;;;;;;18.32;74.73;98951.23;1772885;78;21455;-75
2022/07/11 00:53:02;;;;;;;2.70;2.50;;;;;;;18.23;74.88;98955.65;1797055;78;20995;-77
2022/07/11 00:55:28;;;;;;;3.33;2.30;;;;;;;18.16;74.97;98960.87;1784873;78;21588;-73
2022/07/11 00:57:55;;;;;;;3.98;3.00;;;;;;;18.05;75.51;98957.94;1778945;80;21018;-75
2022/07/11 01:00:22;;;;;;;2.50;2.30;;;;;;;17.97;75.64;98960.19;1775245;78;20981;-77
2022/07/11 01:02:49;;;;;;;4.22;3.50;;;;;;;17.97;75.64;98954.27;1790638;78;21049;-76
2022/07/11 01:05:15;;;;;;;6.20;2.80;;;;;;;18.03;75.58;98947.14;1790983;78;20990;-76
2022/07/11 01:07:42;;;;;;;3.25;2.70;;;;;;;18.02;75.62;98957.59;1753543;80;21111;-75
2022/07/11 01:10:10;;;;;;;3.90;2.85;;;;;;;18.01;75.70;98960.81;1781414;79;21030;-75
2022/07/11 01:12:36;;;;;;;3.33;2.70;;;;;;;17.98;75.71;98954.58;1809333;78;21057;-77
2022/07/11 01:15:04;;;;;;;3.33;3.02;;;;;;;17.97;75.70;98956.97;1802330;77;21544;-75
2022/07/11 01:17:32;;;;;;;2.90;2.33;;;;;;;17.96;75.79;98949.13;1809554;79;21073;-75
2022/07/11 01:19:58;;;;;;;3.40;2.40;;;;;;;18.01;75.71;98951.94;1808905;78;21057;-76
2022/07/11 01:22:25;;;;;;;4.17;3.08;;;;;;;18.10;75.42;98957.75;1801164;78;21606;-74
2022/07/11 01:24:51;;;;;;;3.52;2.52;;;;;;;18.08;75.44;98949.95;1806771;79;21034;-76
2022/07/11 01:27:17;;;;;;;2.90;2.62;;;;;;;18.05;75.70;98949.06;1805506;78;21101;-77
2022/07/11 01:29:45;;;;;;;5.97;3.17;;;;;;;18.01;75.79;98942.53;1792557;78;21094;-74
2022/07/11 01:32:11;;;;;;;3.98;2.95;;;;;;;17.96;75.83;98952.62;1786072;78;21157;-75
2022/07/11 01:34:37;;;;;;;3.52;2.70;;;;;;;17.90;76.09;98950.89;1785720;79;21121;-75
2022/07/11 01:37:04;;;;;;;4.40;2.25;;;;;;;17.90;76.22;98956.27;1783586;78;21021;-76
2022/07/11 01:39:31;;;;;;;2.85;2.52;;;;;;;17.97;75.99;98952.13;1763783;78;21145;-75
2022/07/11 01:41:57;;;;;;;4.30;2.62;;;;;;;17.92;76.01;98945.28;1781342;78;21541;-74
2022/07/11 01:44:25;;;;;;;2.60;2.40;;;;;;;17.84;76.52;98943.23;1762337;80;21502;-76
2022/07/11 01:46:52;;;;;;;3.65;2.30;;;;;;;17.75;76.67;98933.89;1787633;78;21084;-75
2022/07/11 01:49:18;;;;;;;3.42;2.40;;;;;;;17.69;76.68;98936.98;1769110;78;21087;-76
2022/07/11 01:51:44;;;;;;;3.15;2.50;;;;;;;17.71;76.79;98943.98;1776149;78;21066;-75
2022/07/11 01:54:11;;;;;;;4.10;2.62;;;;;;;17.79;76.58;98940.42;1780415;78;21013;-75
2022/07/11 01:56:37;;;;;;;4.03;2.75;;;;;;;17.75;76.87;98935.23;1771652;78;21533;-75
2022/07/11 01:59:04;;;;;;;3.83;2.50;;;;;;;17.70;76.81;98935.11;1754332;80;21037;-73
2022/07/11 02:01:31;;;;;;;2.87;2.62;;;;;;;17.67;76.90;98938.25;1771970;78;21022;-74
2022/07/11 02:04:00;;;;;;;2.58;2.37;;;;;;;17.61;77.07;98937.85;1783988;78;21042;-74
2022/07/11 02:06:26;;;;;;;4.47;2.15;;;;;;;17.63;77.12;98942.46;1785964;78;21028;-75
2022/07/11 02:08:53;;;;;;;4.28;2.45;;;;;;;17.71;77.06;98934.05;1785910;79;21135;-76
2022/07/11 02:11:20;;;;;;;3.45;2.40;;;;;;;17.67;77.23;98928.85;1779650;78;21005;-75
2022/07/11 02:13:46;;;;;;;5.28;2.60;;;;;;;17.61;77.30;98925.77;1785862;78;21056;-76
2022/07/11 02:16:13;;;;;;;5.08;2.85;;;;;;;17.56;77.34;98937.22;1784875;78;21085;-73
2022/07/11 02:18:40;;;;;;;3.15;2.40;;;;;;;17.54;77.75;98946.54;1787335;79;21634;-75
2022/07/11 02:21:07;;;;;;;4.00;2.25;;;;;;;17.54;77.85;98943.85;1770735;78;21104;-76
2022/07/11 02:23:34;;;;;;;3.10;2.58;;;;;;;17.63;77.63;98943.80;1773637;78;21061;-75
2022/07/11 02:26:01;;;;;;;4.42;2.37;;;;;;;17.64;77.64;98946.80;1784986;79;20994;-75
2022/07/11 02:28:28;;;;;;;2.95;2.42;;;;;;;17.64;77.93;98946.80;1762929;78;21033;-75
2022/07/11 02:30:54;;;;;;;3.22;2.58;;;;;;;17.64;78.03;98944.11;1774599;78;21052;-72
2022/07/11 02:33:21;;;;;;;4.65;2.22;;;;;;;17.65;78.04;98932.30;1733051;80;21323;-72
2022/07/11 02:35:47;;;;;;;4.55;2.35;;;;;;;17.70;78.09;98936.45;1744956;80;21053;-72
2022/07/11 02:38:14;;;;;;;2.83;2.35;;;;;;;17.78;78.05;98937.44;1772211;80;21056;-72
2022/07/11 02:40:41;;;;;;;3.87;2.27;;;;;;;17.77;78.13;98934.98;1780242;78;21036;-74
2022/07/11 02:43:09;;;;;;;2.65;2.45;;;;;;;17.73;78.49;98936.50;1730900;80;21568;-74
2022/07/11 02:45:36;;;;;;;3.12;2.80;;;;;;;17.70;78.71;98932.42;1767268;80;21869;-73
2022/07/11 02:48:02;;;;;;;7.05;2.92;;;;;;;17.66;78.91;98933.41;1777142;78;21080;-74
2022/07/11 02:50:29;;;;;;;3.62;2.90;;;;;;;17.71;78.79;98931.89;1781614;78;21084;-75
2022/07/11 02:52:56;;;;;;;2.72;2.52;;;;;;;17.81;78.62;98928.92;1754627;80;21047;-75
2022/07/11 02:55:23;;;;;;;2.90;2.50;;;;;;;17.82;78.61;98921.67;1744289;80;21060;-75
2022/07/11 02:57:49;;;;;;;3.25;2.80;;;;;;;17.79;78.63;98922.12;1754637;81;22123;-76
2022/07/11 03:00:17;;;;;;;3.58;2.70;;;;;;;17.76;78.51;98928.80;1807851;77;21009;-76
2022/07/11 03:02:43;;;;;;;3.20;2.30;;;;;;;17.73;78.36;98922.57;1805139;77;21041;-76
2022/07/11 03:05:10;;;;;;;2.87;2.47;;;;;;;17.80;78.34;98924.58;1835707;78;21080;-73
2022/07/11 03:07:37;;;;;;;4.40;2.55;;;;;;;17.92;78.09;98922.45;1819609;78;21080;-73
2022/07/11 03:10:05;;;;;;;4.42;2.37;;;;;;;17.93;77.80;98924.91;1828168;78;21617;-76
2022/07/11 03:12:32;;;;;;;4.35;2.62;;;;;;;17.92;77.75;98917.88;1804176;78;21036;-78
2022/07/11 03:14:58;;;;;;;3.37;2.50;;;;;;;17.92;77.84;98926.48;1804056;78;21068;-77
2022/07/11 03:17:25;;;;;;;3.67;2.30;;;;;;;17.89;77.85;98926.44;1812204;77;20994;-75
2022/07/11 03:19:51;;;;;;;3.10;2.70;;;;;;;17.92;77.76;98935.88;1811286;77;21044;-79
2022/07/11 03:22:19;;;;;;;2.72;2.27;;;;;;;17.98;77.53;98936.27;1814384;77;20982;-75
2022/07/11 03:24:46;;;;;;;3.17;2.67;;;;;;;17.96;77.62;98939.19;1818634;77;21041;-76
2022/07/11 03:27:13;;;;;;;4.58;2.52;;;;;;;17.84;77.79;98932.49;1810060;77;21072;-73
2022/07/11 03:29:40;;;;;;;3.10;2.80;;;;;;;17.78;77.77;98941.47;1807269;77;21006;-76
2022/07/11 03:32:09;;;;;;;3.08;2.35;;;;;;;17.73;78.03;98942.72;1825260;77;21136;-75
2022/07/11 03:34:36;;;;;;;3.27;2.25;;;;;;;17.77;77.92;98945.22;1825917;78;21143;-74
2022/07/11 03:37:04;;;;;;;3.10;2.75;;;;;;;17.86;77.55;98943.81;1814572;77;21630;-74
2022/07/11 03:39:30;;;;;;;3.83;3.22;;;;;;;17.84;77.84;98945.92;1780823;78;21566;-73
2022/07/11 03:41:57;;;;;;;5.67;2.65;;;;;;;17.78;77.82;98945.49;1810258;77;21497;-73
2022/07/11 03:44:24;;;;;;;2.95;2.58;;;;;;;17.75;77.88;98943.80;1824636;78;21054;-73
2022/07/11 03:46:50;;;;;;;3.10;2.55;;;;;;;17.72;77.93;98945.09;1810585;77;21195;-75
2022/07/11 03:49:17;;;;;;;3.37;3.08;;;;;;;17.72;77.88;98946.44;1820509;77;20986;-73
2022/07/11 03:51:43;;;;;;;4.28;3.20;;;;;;;17.74;77.73;98955.08;1826555;77;21076;-76
2022/07/11 03:54:10;;;;;;;3.55;2.65;;;;;;;17.71;77.67;98955.53;1821261;77;21044;-75
2022/07/11 03:56:37;;;;;;;6.72;3.70;;;;;;;17.66;77.80;98954.09;1753725;80;21105;-74
2022/07/11 03:59:03;;;;;;;6.42;4.08;;;;;;;17.61;77.96;98957.46;1802269;77;21099;-75
2022/07/11 04:01:29;;;;;;;6.05;3.87;;;;;;;17.59;77.97;98961.44;1761812;80;21014;-74
2022/07/11 04:03:56;;;;;;;7.58;4.80;;;;;;;17.61;77.92;98957.99;1810444;79;21578;-74
2022/07/11 04:06:22;;;;;;;6.55;4.65;;;;;;;17.66;77.83;98952.75;1777870;80;21538;-75
2022/07/11 04:08:49;;;;;;;9.40;5.53;;;;;;;17.64;77.82;98962.38;1810156;77;21039;-77
2022/07/11 04:11:16;;;;;;;9.28;5.92;;;;;;;17.64;77.82;98961.56;1738385;80;21572;-74
2022/07/11 04:13:43;;;;;;;10.30;6.67;;;;;;;17.61;77.86;98962.83;1803014;77;21032;-74
2022/07/11 04:16:09;;;;;;;15.70;8.13;;;;;;;17.59;78.03;98954.19;1777149;80;21029;-77
2022/07/11 04:18:37;;;;;;;14.10;8.40;;;;;;;17.63;77.93;98959.92;1802500;77;21043;-76
2022/07/11 04:21:04;;;;;;;16.45;9.65;;;;;;;17.69;77.85;98966.53;1764607;79;21034;-76
2022/07/11 04:23:31;;;;;;;17.20;10.32;;;;;;;17.68;77.82;98966.23;1809062;79;21624;-75
2022/07/11 04:25:58;;;;;;;18.20;11.50;;;;;;;17.67;77.97;98965.11;1769460;80;21026;-75
2022/07/11 04:28:24;;;;;;;20.70;13.08;;;;;;;17.64;78.03;98965.06;1788262;80;21109;-74
2022/07/11 04:30:51;;;;;;;20.90;13.68;;;;;;;17.61;78.01;98962.83;1773429;80;21005;-77
2022/07/11 04:33:17;;;;;;;26.00;14.65;;;;;;;17.64;78.08;98962.91;1786663;80;21081;-76
2022/07/11 04:35:44;;;;;;;23.50;16.12;;;;;;;17.72;78.06;98957.72;1772141;80;21058;-73
2022/07/11 04:38:11;;;;;;;29.77;19.07;;;;;;;17.67;78.36;98966.45;1784541;80;21030;-74
2022/07/11 04:40:37;;;;;;;29.77;18.55;;;;;;;17.61;78.85;98968.73;1779173;80;21042;-74
2022/07/11 04:43:04;;;;;;;34.38;20.48;;;;;;;17.57;78.59;98963.01;1755107;81;21123;-75
2022/07/11 04:45:30;;;;;;;33.63;20.52;;;;;;;17.52;78.62;98963.41;1769085;79;21048;-75
2022/07/11 04:47:59;;;;;;;35.48;21.35;;;;;;;17.54;78.51;98958.63;1787084;78;21239;-73
2022/07/11 04:50:26;;;;;;;36.38;22.00;;;;;;;17.59;78.36;98954.19;1761893;80;21499;-74
2022/07/11 04:52:52;;;;;;;31.23;21.15;;;;;;;17.60;78.52;98955.84;1792685;80;21526;-73
2022/07/11 04:55:19;;;;;;;33.70;21.37;;;;;;;17.59;78.56;98954.73;1789688;80;21043;-74
2022/07/11 04:57:46;;;;;;;34.45;20.35;;;;;;;17.57;78.68;98952.27;1748848;80;21954;-73
2022/07/11 05:00:13;;;;;;;31.42;19.77;;;;;;;17.64;78.56;98945.45;1795667;79;21869;-75
2022/07/11 05:02:40;;;;;;;30.68;20.25;;;;;;;17.77;78.20;98945.72;1796486;77;21040;-74
2022/07/11 05:05:07;;;;;;;34.75;21.90;;;;;;;17.78;78.03;98948.72;1791138;77;21499;-73
2022/07/11 05:07:35;;;;;;;33.60;21.10;;;;;;;17.77;78.12;98949.75;1807863;77;20961;-76
2022/07/11 05:10:04;;;;;;;34.03;22.17;;;;;;;17.76;78.07;98959.69;1799938;77;21492;-73
2022/07/11 05:12:31;;;;;;;33.78;20.17;;;;;;;17.71;77.98;98961.44;1785350;77;21149;-73
2022/07/11 05:14:58;;;;;;;34.30;21.23;;;;;;;17.72;78.14;98966.58;1809493;77;21024;-76
2022/07/11 05:17:26;;;;;;;37.58;22.80;;;;;;;17.75;77.99;98967.47;1800261;77;21055;-75
2022/07/11 05:19:53;;;;;;;35.85;21.75;;;;;;;17.68;77.98;98966.77;1787287;78;20991;-75
2022/07/11 05:22:19;;;;;;;34.50;21.55;;;;;;;17.64;78.16;98965.59;1776030;78;21021;-76
2022/07/11 05:24:46;;;;;;;36.28;21.12;;;;;;;17.59;78.33;98963.59;1782942;78;21565;-75
2022/07/11 05:27:12;;;;;;;32.93;19.73;;;;;;;17.63;78.21;98963.95;1764923;80;21034;-73
2022/07/11 05:29:40;;;;;;;35.83;19.85;;;;;;;17.75;78.24;98963.95;1767656;78;21155;-75
2022/07/11 05:32:07;;;;;;;31.57;19.40;;;;;;;17.77;78.03;98953.28;1770314;78;21017;-74
2022/07/11 05:34:35;;;;;;;27.25;17.65;;;;;;;17.82;77.94;98958.75;1739957;80;21141;-74
2022/07/11 05:37:01;;;;;;;29.32;18.35;;;;;;;17.85;77.70;98964.23;1779255;78;21171;-74
2022/07/11 05:39:28;;;;;;;32.08;16.82;;;;;;;17.88;77.57;98964.55;1782947;78;21068;-75
2022/07/11 05:41:55;;;;;;;29.98;16.80;;;;;;;17.97;77.34;98965.02;1758007;80;21090;-76
2022/07/11 05:44:21;;;;;;;23.30;15.78;;;;;;;18.11;77.19;98960.75;1791444;80;21526;-74
2022/07/11 05:46:48;;;;;;;25.35;15.70;;;;;;;18.14;76.87;98962.44;1789180;80;21093;-76
2022/07/11 05:49:14;;;;;;;22.05;14.85;;;;;;;18.15;76.86;98960.02;1736000;80;21126;-73
2022/07/11 05:51:41;;;;;;;23.30;14.98;;;;;;;18.18;76.72;98957.41;1809880;79;21036;-76
2022/07/11 05:54:07;;;;;;;27.50;15.25;;;;;;;18.21;76.86;98959.07;1793035;77;20997;-75
2022/07/11 05:56:34;;;;;;;22.48;14.58;;;;;;;18.28;76.66;98965.14;1796677;77;21034;-75
2022/07/11 05:59:01;;;;;;;24.27;14.70;;;;;;;18.47;76.33;98958.27;1804749;77;21058;-77
2022/07/11 06:01:27;;;;;;;24.27;14.05;;;;;;;18.58;76.45;98966.83;1811580;77;21611;-75
2022/07/11 06:03:54;;;;;;;23.45;13.65;;;;;;;18.65;76.03;98955.91;1806980;77;21048;-74
2022/07/11 06:06:21;;;;;;;20.70;14.05;;;;;;;18.72;75.89;98957.94;1806124;77;21033;-75
2022/07/11 06:08:48;;;;;;;21.25;12.63;;;;;;;18.80;75.51;98963.50;1815409;77;21469;-76
2022/07/11 06:11:16;;;;;;;18.07;12.23;;;;;;;18.90;75.02;98960.17;1810460;77;21037;-73
2022/07/11 06:13:49;;;;;;;17.95;11.73;;;;;;;19.02;75.04;98959.03;1813228;77;21845;-75
2022/07/11 06:16:12;;;;;;;16.05;11.05;;;;;;;19.22;74.77;98954.55;1819095;77;21023;-72
2022/07/11 06:18:39;;;;;;;13.13;10.03;;;;;;;19.35;74.46;98949.89;1819372;77;21103;-71
2022/07/11 06:21:06;;;;;;;17.05;11.03;;;;;;;19.49;73.86;98957.11;1806200;77;21088;-73
2022/07/11 06:23:36;;;;;;;16.10;10.08;;;;;;;19.58;73.33;98951.60;1818679;77;21061;-71
2022/07/11 06:26:04;;;;;;;14.47;9.13;;;;;;;19.64;72.92;98946.06;1816386;77;21164;-72
2022/07/11 06:28:31;;;;;;;14.20;9.15;;;;;;;19.72;73.05;98950.25;1822571;77;21009;-71
2022/07/11 06:30:57;;;;;;;15.23;8.90;;;;;;;19.81;72.69;98942.54;1816348;77;21032;-72
2022/07/11 06:33:23;;;;;;;11.95;8.55;;;;;;;19.89;72.40;98946.16;1818747;78;21072;-70
2022/07/11 06:35:50;;;;;;;10.98;6.75;;;;;;;20.04;72.19;98945.55;1819462;77;21053;-73
2022/07/11 06:38:17;;;;;;;11.75;7.72;;;;;;;20.23;71.51;98947.42;1818579;77;21227;-73
2022/07/11 06:40:43;;;;;;;11.28;7.97;;;;;;;20.30;71.02;98948.56;1815412;77;21030;-71
2022/07/11 06:43:11;;;;;;;11.10;7.92;;;;;;;20.33;70.80;98948.08;1813836;77;20991;-72
2022/07/11 06:45:39;;;;;;;10.75;7.20;;;;;;;20.40;70.85;98946.81;1822179;78;21141;-79
2022/07/11 06:48:06;;;;;;;8.98;7.00;;;;;;;20.51;70.47;98950.97;1815597;77;21026;-80
2022/07/11 06:50:33;;;;;;;11.35;6.78;;;;;;;20.56;70.47;98949.15;1819838;77;21034;-82
2022/07/11 06:52:59;;;;;;;13.68;7.30;;;;;;;20.65;70.21;98940.12;1817556;77;21006;-82
2022/07/11 06:55:26;;;;;;;10.98;6.37;;;;;;;20.77;70.23;98939.97;1808116;77;21080;-80
2022/07/11 06:57:52;;;;;;;11.22;6.92;;;;;;;20.89;69.82;98941.97;1820010;77;21486;-84
2022/07/11 07:00:19;;;;;;;8.23;5.85;;;;;;;20.99;69.34;98941.25;1821178;77;21084;-81
2022/07/11 07:02:46;;;;;;;7.03;5.85;;;;;;;21.09;68.86;98942.68;1817407;77;21077;-81
2022/07/11 07:05:12;;;;;;;10.55;5.50;;;;;;;21.19;68.19;98944.14;1826832;77;21033;-82
2022/07/11 07:07:39;;;;;;;6.55;5.30;;;;;;;21.25;67.79;98948.22;1829066;77;21053;-82
2022/07/11 07:12:25;;;;;;;8.08;5.65;;;;;;;21.33;66.64;98937.77;1869939;76;23256;-80
2022/07/11 07:14:51;;;;;;;6.75;5.60;;;;;;;21.30;66.65;98930.16;1821748;78;21560;-81
2022/07/11 07:17:18;;;;;;;9.65;5.60;;;;;;;21.34;66.72;98940.76;1794013;78;21744;-81
2022/07/11 07:19:45;;;;;;;5.95;4.80;;;;;;;21.43;66.68;98944.33;1810040;78;20949;-81
2022/07/11 07:22:15;;;;;;;4.42;3.92;;;;;;;21.52;66.64;98942.27;1816977;78;21016;-82
2022/07/11 07:24:40;;;;;;;6.53;3.65;;;;;;;21.63;65.38;98941.78;1822268;77;20969;-81
2022/07/11 07:27:07;;;;;;;6.97;3.20;;;;;;;21.69;65.02;98939.41;1756261;80;20938;-82
2022/07/11 07:29:34;;;;;;;5.12;3.50;;;;;;;21.75;64.32;98945.12;1752217;81;21631;-84
2022/07/11 07:32:01;;;;;;;4.33;3.35;;;;;;;21.80;64.08;98942.98;1739897;81;20965;-83
2022/07/11 07:34:28;;;;;;;5.22;3.17;;;;;;;21.89;64.19;98944.12;1746801;81;21208;-81
2022/07/11 07:36:54;;;;;;;3.20;2.70;;;;;;;21.98;63.54;98943.06;1756875;80;20958;-80
2022/07/11 07:39:21;;;;;;;3.80;2.85;;;;;;;22.09;63.16;98947.45;1754464;81;21053;-82
2022/07/11 07:41:47;;;;;;;3.00;2.70;;;;;;;22.21;62.38;98944.53;1757645;81;21321;-82
2022/07/11 07:44:13;;;;;;;3.37;2.45;;;;;;;22.33;61.98;98949.23;1728916;83;21030;-82
2022/07/11 07:46:40;;;;;;;3.35;2.30;;;;;;;22.45;61.92;98946.30;1745513;81;21151;-82
2022/07/11 07:49:07;;;;;;;3.40;2.42;;;;;;;22.61;61.17;98947.70;1757065;80;21053;-84
2022/07/11 07:51:34;;;;;;;3.58;2.25;;;;;;;22.74;60.79;98945.84;1780135;79;21061;-81
2022/07/11 07:54:00;;;;;;;2.12;1.77;;;;;;;22.88;59.81;98951.55;1782641;79;21890;-80
2022/07/11 07:56:27;;;;;;;6.12;2.45;;;;;;;22.97;59.76;98948.04;1781590;79;21128;-83
2022/07/11 07:58:54;;;;;;;3.02;2.15;;;;;;;23.06;59.56;98952.40;1779335;79;21006;-82
2022/07/11 08:01:36;;;;;;;2.85;2.20;;;;;;;23.11;59.07;98955.13;1781995;79;20990;-80
2022/07/11 08:04:06;;;;;;;;;;;;;;;23.12;58.72;98949.16;1784142;79;20978;-85
2022/07/11 08:06:34;;;;;;;3.27;2.37;;;;;;;23.13;58.56;98952.95;1772409;79;21132;-82
2022/07/11 08:09:01;;;;;;;3.20;2.10;;;;;;;23.17;58.46;98945.11;1782689;79;20990;-83
2022/07/11 08:11:27;;;;;;;3.85;2.15;;;;;;;23.20;58.54;98945.94;1781342;79;21025;-85
2022/07/11 08:13:54;;;;;;;3.65;2.00;;;;;;;23.27;58.20;98946.45;1777308;79;21053;-85
2022/07/11 08:16:21;;;;;;;2.87;2.50;;;;;;;23.33;57.78;98949.98;1779619;78;21132;-84
2022/07/11 08:18:47;;;;;;;4.85;2.33;;;;;;;23.37;57.85;98944.28;1807954;77;22168;-84
2022/07/11 08:21:14;;;;;;;6.85;2.58;;;;;;;23.44;57.38;98945.38;1809611;77;21414;-82
2022/07/11 08:23:40;;;;;;;2.55;2.00;;;;;;;23.48;57.51;98940.48;1826869;77;21013;-83
2022/07/11 08:26:07;;;;;;;2.47;2.27;;;;;;;23.52;57.40;98946.18;1810954;77;21072;-80
2022/07/11 08:28:34;;;;;;;3.45;2.10;;;;;;;23.58;57.31;98950.50;1824232;77;21069;-83
2022/07/11 08:31:01;;;;;;;3.85;2.45;;;;;;;23.62;57.30;98942.09;1841457;77;21117;-84
2022/07/11 08:33:27;;;;;;;4.15;2.45;;;;;;;23.73;57.34;98949.68;1825957;77;21049;-82
2022/07/11 08:35:54;;;;;;;3.70;2.12;;;;;;;23.79;56.86;98947.25;1820918;77;21041;-86
2022/07/11 08:38:20;;;;;;;6.25;2.75;;;;;;;23.83;56.51;98944.25;1829669;77;21028;-84
2022/07/11 08:40:50;;;;;;;3.77;2.05;;;;;;;23.87;56.40;98948.59;1825798;77;21027;-85
2022/07/11 08:43:25;;;;;;;3.70;2.17;;;;;;;23.92;56.33;98947.23;1828978;77;21145;-85
2022/07/11 08:45:51;;;;;;;4.47;2.25;;;;;;;24.01;56.13;98952.37;1810561;77;21000;-83
2022/07/11 08:48:19;;;;;;;2.95;2.10;;;;;;;24.06;56.12;98953.69;1814222;77;21352;-85
2022/07/11 08:50:46;;;;;;;3.62;2.12;;;;;;;24.13;56.00;98952.05;1801363;77;21006;-83
2022/07/11 08:53:15;;;;;;;4.60;2.47;;;;;;;24.22;55.88;98953.64;1806280;77;21039;-84
2022/07/11 08:55:47;;;;;;;2.80;2.30;;;;;;;24.27;55.86;98959.05;1809185;78;21269;-86
2022/07/11 08:58:16;;;;;;;2.55;2.33;;;;;;;24.32;55.76;98956.33;1796562;78;21552;-84
2022/07/11 09:00:43;;;;;;;3.27;2.50;;;;;;;24.39;55.36;98959.53;1816896;77;21056;-84
2022/07/11 09:03:15;;;;;;;2.75;2.12;;;;;;;24.42;55.38;98956.28;1785431;77;21088;-81
2022/07/11 09:05:43;;;;;;;;;;;;;;;24.52;55.23;98962.23;1823082;77;21036;-80
2022/07/11 09:08:10;;;;;;;3.58;2.20;;;;;;;24.60;55.00;98960.84;1813798;77;21078;-84
2022/07/11 09:10:40;;;;;;;2.45;2.25;;;;;;;24.63;54.66;98956.22;1731260;80;22247;-83
2022/07/11 09:13:10;;;;;;;2.90;2.25;;;;;;;24.68;54.38;98950.73;1811691;77;21599;-83
2022/07/11 09:15:42;;;;;;;2.92;2.20;;;;;;;24.71;53.96;98953.71;1797091;77;21033;-83
2022/07/11 09:18:41;;;;;;;5.00;2.30;;;;;;;24.72;53.94;98949.92;1817367;77;21099;-80
2022/07/11 09:26:50;;;;;;;2.90;2.60;;;;;;;24.79;54.18;98948.23;1803555;77;21012;-82
2022/07/11 09:29:24;;;;;;;3.17;2.55;;;;;;;24.90;54.50;98944.36;1814502;77;21010;-81
2022/07/11 09:31:50;;;;;;;3.12;2.58;;;;;;;25.00;54.14;98944.03;1814025;78;20998;-84
2022/07/11 09:34:21;;;;;;;3.80;2.08;;;;;;;25.03;53.71;98946.97;1818386;77;21343;-84
2022/07/11 09:36:54;;;;;;;3.45;2.50;;;;;;;24.99;53.74;98947.28;1822240;77;21044;-84
2022/07/11 09:39:22;;;;;;;3.67;2.20;;;;;;;24.98;54.26;98946.23;1816021;77;21252;-84
2022/07/11 09:41:51;;;;;;;3.90;2.35;;;;;;;24.98;53.78;98942.95;1824547;77;21675;-81
2022/07/11 09:44:28;;;;;;;2.50;2.30;;;;;;;25.06;55.61;98940.98;1803446;77;21103;-79
2022/07/11 09:46:56;;;;;;;4.67;2.58;;;;;;;25.16;54.39;98941.45;1820736;77;21095;-80
2022/07/11 09:49:39;;;;;;;4.58;2.20;;;;;;;25.28;53.53;98931.08;1823893;77;21035;-81
2022/07/11 09:52:15;;;;;;;4.08;1.98;;;;;;;25.30;53.34;98932.96;1821765;77;21039;-80
2022/07/11 09:55:00;;;;;;;4.17;2.37;;;;;;;25.30;53.20;98928.88;1819250;77;21050;-81
2022/07/11 09:57:36;;;;;;;6.95;2.10;;;;;;;25.37;53.31;98925.82;1813598;77;21110;-82
2022/07/11 10:00:09;;;;;;;2.55;2.30;;;;;;;25.55;52.88;98931.64;1817710;77;21060;-81
2022/07/11 10:02:38;;;;;;;3.20;2.30;;;;;;;25.67;52.82;98927.45;1819451;77;21049;-81
2022/07/11 10:05:05;;;;;;;2.95;2.37;;;;;;;25.73;53.01;98934.17;1820633;77;21112;-82
2022/07/11 10:07:33;;;;;;;2.50;2.30;;;;;;;25.72;53.07;98932.57;1822005;77;21026;-80
2022/07/11 10:10:01;;;;;;;3.42;2.52;;;;;;;25.65;52.70;98932.89;1815122;77;20978;-84
2022/07/11 10:12:31;;;;;;;3.35;2.42;;;;;;;25.52;52.93;98926.23;1822112;77;21032;-84
2022/07/11 10:14:57;;;;;;;3.98;2.42;;;;;;;25.37;52.98;98916.86;1804111;78;21615;-83
2022/07/11 10:18:05;;;;;;;3.10;2.10;;;;;;;25.31;53.19;98918.26;1820288;77;21066;-83
2022/07/11 10:20:47;;;;;;;4.05;2.47;;;;;;;25.34;52.57;98913.34;1791886;78;21033;-81
2022/07/11 10:23:39;;;;;;;3.25;2.25;;;;;;;25.39;51.64;98914.67;1762527;81;21053;-84
2022/07/11 10:26:23;;;;;;;3.92;2.05;;;;;;;25.35;51.19;98916.34;1753461;79;21156;-83
2022/07/11 10:29:02;;;;;;;2.77;2.22;;;;;;;25.28;51.27;98918.02;1761526;81;21006;-86
2022/07/11 10:31:30;;;;;;;4.90;3.10;;;;;;;25.13;51.38;98925.73;1761660;80;21084;-82
2022/07/11 10:34:10;;;;;;;9.88;5.35;;;;;;;24.99;52.11;98928.26;1771769;81;21104;-83
2022/07/11 10:36:41;;;;;;;8.73;5.80;;;;;;;24.78;53.76;98930.86;1764387;79;21220;-81
2022/07/11 10:39:26;;;;;;;10.85;6.70;;;;;;;24.50;55.17;98937.23;1766447;81;21098;-82
2022/07/11 10:41:57;;;;;;;8.53;5.05;;;;;;;24.21;55.99;98939.81;1757916;79;21093;-83
2022/07/11 10:44:24;;;;;;;6.72;4.53;;;;;;;23.87;56.49;98943.16;1765109;79;21054;-83
2022/07/11 10:46:52;;;;;;;7.17;4.12;;;;;;;23.54;56.13;98950.78;1757945;80;21533;-84
2022/07/11 10:49:31;;;;;;;7.40;3.98;;;;;;;23.19;56.60;98959.74;1765405;80;21156;-82
2022/07/11 10:52:05;;;;;;;8.30;4.30;;;;;;;22.85;57.20;98959.67;1764585;80;21073;-82
2022/07/11 10:55:09;;;;;;;13.00;5.05;;;;;;;22.52;57.93;98963.63;1762766;79;21754;-82
2022/07/11 10:58:04;;;;;;;7.87;4.20;;;;;;;22.19;58.73;98961.05;1762183;79;21009;-81
2022/07/11 11:00:31;;;;;;;9.68;4.53;;;;;;;21.88;60.03;98957.89;1768323;79;21044;-82
2022/07/11 11:03:09;;;;;;;8.48;4.85;;;;;;;21.64;60.53;98960.19;1759681;79;21007;-82
2022/07/11 11:05:54;;;;;;;11.78;4.70;;;;;;;21.43;61.21;98957.84;1727668;82;21452;-82
2022/07/11 11:08:40;;;;;;;7.20;4.53;;;;;;;21.23;61.89;98963.86;1774966;79;21037;-85
2022/07/11 11:11:36;;;;;;;9.03;4.15;;;;;;;21.07;62.63;98955.63;1751678;82;21918;-83
2022/07/11 11:14:30;;;;;;;5.67;4.33;;;;;;;20.93;63.51;98955.23;1765505;79;21084;-81
2022/07/11 11:16:52;;;;;;;5.47;4.20;;;;;;;20.84;63.77;98959.45;1771868;80;21203;-81
2022/07/11 11:19:48;;;;;;;8.35;4.75;;;;;;;20.80;63.96;98958.33;1770198;80;21536;-81
2022/07/11 11:22:16;;;;;;;7.83;4.17;;;;;;;20.79;64.17;98966.16;1771229;80;21030;-80
2022/07/11 11:24:43;;;;;;;6.60;3.60;;;;;;;20.76;64.24;98963.96;1695118;82;21067;-80
2022/07/11 11:27:21;;;;;;;6.08;3.92;;;;;;;20.70;64.33;98967.14;1693503;83;21028;-80
2022/07/11 11:29:53;;;;;;;6.67;3.62;;;;;;;20.63;64.24;98965.19;1695902;83;21121;-81
2022/07/11 11:32:20;;;;;;;7.08;3.75;;;;;;;20.59;64.22;98968.05;1688337;83;21133;-81
2022/07/11 11:34:47;;;;;;;5.53;4.30;;;;;;;20.55;64.36;98973.17;1711774;82;21089;-81
2022/07/11 11:37:16;;;;;;;4.75;3.20;;;;;;;20.50;64.73;98978.49;1709327;82;21066;-82
2022/07/11 11:39:42;;;;;;;7.17;3.22;;;;;;;20.47;64.59;98982.22;1719035;83;21034;-84
2022/07/11 11:42:16;;;;;;;3.33;2.92;;;;;;;20.40;64.51;98981.88;1689361;83;21060;-83
2022/07/11 11:44:56;;;;;;;3.20;2.85;;;;;;;20.33;64.32;98983.95;1719359;81;21150;-82